createdAt,value
2023-05-25T00:04:22.372Z,3.22
2023-05-25T00:09:26.050Z,2.85
2023-05-25T00:14:31.449Z,3.00
2023-05-25T00:19:35.132Z,3.28
2023-05-25T00:24:43.907Z,3.53
2023-05-25T00:29:47.957Z,3.13
2023-05-25T00:34:51.795Z,3.40
2023-05-25T00:39:55.230Z,3.40
2023-05-25T00:44:59.191Z,3.50
2023-05-25T00:50:04.428Z,3.47
2023-05-25T00:55:13.592Z,3.42
2023-05-25T01:00:18.413Z,3.25
2023-05-25T01:05:25.560Z,3.30
2023-05-25T01:15:39.678Z,3.57
2023-05-25T01:20:59.739Z,3.35
2023-05-25T01:26:07.922Z,3.10
2023-05-25T01:31:12.154Z,3.22
2023-05-25T01:36:15.890Z,3.25
2023-05-25T01:41:19.545Z,2.88
2023-05-25T01:46:39.162Z,3.15
2023-05-25T01:51:56.069Z,3.45
2023-05-25T01:57:02.522Z,3.25
2023-05-25T02:02:07.557Z,3.40
2023-05-25T02:07:12.449Z,3.10
2023-05-25T02:12:16.046Z,3.00
2023-05-25T02:17:20.056Z,2.97
2023-05-25T02:22:24.706Z,3.00
2023-05-25T02:27:28.521Z,3.03
2023-05-25T02:32:33.945Z,2.67
2023-05-25T02:37:39.746Z,2.65
2023-05-25T02:42:45.493Z,3.13
2023-05-25T02:47:49.351Z,2.50
2023-05-25T02:52:53.727Z,2.67
2023-05-25T02:57:58.788Z,3.17
2023-05-25T03:03:27.117Z,2.92
2023-05-25T03:08:31.837Z,3.05
2023-05-25T03:13:36.740Z,3.17
2023-05-25T03:18:41.030Z,3.15
2023-05-25T03:23:46.076Z,3.58
2023-05-25T03:28:50.359Z,3.25
2023-05-25T03:33:54.213Z,3.15
2023-05-25T03:39:03.700Z,4.03
2023-05-25T03:44:08.026Z,3.70
2023-05-25T03:49:14.369Z,3.85
2023-05-25T03:54:18.817Z,3.67
2023-05-25T03:59:26.009Z,3.87
2023-05-25T04:04:30.273Z,4.28
2023-05-25T04:09:34.881Z,4.35
2023-05-25T04:14:38.728Z,4.40
2023-05-25T04:19:42.105Z,4.03
2023-05-25T04:24:47.629Z,3.80
2023-05-25T04:29:51.687Z,3.28
2023-05-25T04:35:21.777Z,3.28
2023-05-25T04:40:28.322Z,3.67
2023-05-25T04:45:33.589Z,3.95
2023-05-25T04:55:45.443Z,3.45
2023-05-25T05:00:51.273Z,3.70
2023-05-25T05:05:57.555Z,3.83
2023-05-25T05:11:05.082Z,3.45
2023-05-25T05:16:09.618Z,3.17
2023-05-25T05:21:12.966Z,3.38
2023-05-25T05:26:16.754Z,2.65
2023-05-25T05:31:20.697Z,3.33
2023-05-25T05:36:24.220Z,3.60
2023-05-25T05:41:28.287Z,3.67
2023-05-25T05:51:38.670Z,3.83
2023-05-25T05:56:42.772Z,3.88
2023-05-25T06:01:46.732Z,3.10
2023-05-25T06:06:51.999Z,3.40
2023-05-25T06:11:55.501Z,3.45
2023-05-25T06:16:59.465Z,3.33
2023-05-25T06:22:02.913Z,2.55
2023-05-25T06:27:06.995Z,2.47
2023-05-25T06:32:13.240Z,2.50
2023-05-25T06:37:18.156Z,2.95
2023-05-25T06:42:21.739Z,2.85
2023-05-25T06:47:32.981Z,4.18
2023-05-25T06:52:36.381Z,3.33
2023-05-25T06:57:39.754Z,3.15
2023-05-25T07:02:43.354Z,3.67
2023-05-25T07:07:47.136Z,3.63
2023-05-25T07:12:50.900Z,3.45
2023-05-25T07:17:57.574Z,3.10
2023-05-25T07:23:01.855Z,3.47
2023-05-25T07:28:06.218Z,3.60
2023-05-25T07:33:09.691Z,4.53
2023-05-25T07:38:13.290Z,5.13
2023-05-25T07:43:16.848Z,3.05
2023-05-25T07:48:21.308Z,3.67
2023-05-25T07:53:25.452Z,3.75
2023-05-25T07:58:29.632Z,4.10
2023-05-25T08:03:47.997Z,3.05
2023-05-25T08:08:52.891Z,3.20
2023-05-25T08:13:56.442Z,3.83
2023-05-25T08:19:01.960Z,4.35
2023-05-25T08:24:05.607Z,3.97
2023-05-25T08:29:09.974Z,3.50
2023-05-25T08:34:13.189Z,3.97
2023-05-25T08:39:17.418Z,3.42
2023-05-25T08:44:22.393Z,3.33
2023-05-25T08:49:28.678Z,3.17
2023-05-25T08:54:37.098Z,3.33
2023-05-25T08:59:57.777Z,3.30
2023-05-25T09:05:02.712Z,2.90
2023-05-25T09:10:08.734Z,3.60
2023-05-25T09:15:13.177Z,2.75
2023-05-25T09:20:19.612Z,2.90
2023-05-25T09:25:26.685Z,2.55
2023-05-25T09:30:33.203Z,2.95
2023-05-25T09:35:38.335Z,2.97
2023-05-25T09:40:42.136Z,2.85
2023-05-25T09:45:45.980Z,2.80
2023-05-25T09:50:50.161Z,3.40
2023-05-25T09:55:54.742Z,3.10
2023-05-25T10:00:58.608Z,2.80
2023-05-25T10:06:03.332Z,3.25
2023-05-25T10:11:07.883Z,2.72
2023-05-25T10:16:13.598Z,2.87
2023-05-25T10:21:18.948Z,2.97
2023-05-25T10:26:27.403Z,3.08
2023-05-25T10:31:34.412Z,3.70
2023-05-25T10:36:38.932Z,3.92
2023-05-25T10:41:42.675Z,3.80
2023-05-25T10:46:46.652Z,3.28
2023-05-25T10:52:00.117Z,3.28
2023-05-25T10:57:19.538Z,3.58
2023-05-25T11:02:26.072Z,3.33
2023-05-25T11:07:29.700Z,3.15
2023-05-25T11:12:33.461Z,3.58
2023-05-25T11:18:00.427Z,2.92
2023-05-25T11:23:24.286Z,3.83
2023-05-25T11:28:33.038Z,2.92
2023-05-25T11:33:37.403Z,3.40
2023-05-25T11:39:04.381Z,3.13
2023-05-25T11:50:17.737Z,2.90
2023-05-25T11:55:22.030Z,2.50
2023-05-25T12:00:28.710Z,2.95
2023-05-25T12:05:39.190Z,2.70
2023-05-25T12:10:55.202Z,2.40
2023-05-25T12:16:00.596Z,2.28
2023-05-25T12:21:08.579Z,2.13
2023-05-25T12:26:14.335Z,2.90
2023-05-25T12:36:39.021Z,2.40
2023-05-25T12:41:53.975Z,2.20
2023-05-25T12:47:17.642Z,2.78
2023-05-25T12:52:35.741Z,2.10
2023-05-25T12:57:39.433Z,2.63
2023-05-25T13:02:48.044Z,3.22
2023-05-25T13:07:58.243Z,2.70
2023-05-25T13:13:03.785Z,2.00
2023-05-25T13:23:11.003Z,2.72
2023-05-25T13:28:14.360Z,2.58
2023-05-25T13:33:18.277Z,2.55
2023-05-25T13:38:22.723Z,2.35
2023-05-25T13:43:26.897Z,2.80
2023-05-25T13:48:30.780Z,2.58
2023-05-25T13:53:34.006Z,2.70
2023-05-25T13:58:38.062Z,2.50
2023-05-25T14:03:42.094Z,2.17
2023-05-25T14:08:45.665Z,2.65
2023-05-25T14:13:49.287Z,2.15
2023-05-25T14:18:53.284Z,2.45
2023-05-25T14:23:57.707Z,2.50
2023-05-25T14:29:02.392Z,2.58
2023-05-25T14:34:05.539Z,2.70
2023-05-25T14:39:11.506Z,2.45
2023-05-25T14:44:16.920Z,2.47
2023-05-25T14:49:25.123Z,2.40
2023-05-25T14:54:28.320Z,2.90
2023-05-25T14:59:32.164Z,2.40
2023-05-25T15:04:35.371Z,2.50
2023-05-25T15:09:39.294Z,2.60
2023-05-25T15:14:43.148Z,2.60
2023-05-25T15:19:47.119Z,2.75
2023-05-25T15:24:50.473Z,2.88
2023-05-25T15:29:54.278Z,3.13
2023-05-25T15:34:57.519Z,3.10
2023-05-25T15:40:00.855Z,3.40
2023-05-25T15:45:05.082Z,3.35
2023-05-25T15:50:08.531Z,3.53
2023-05-25T15:55:12.538Z,3.03
2023-05-25T16:00:17.804Z,3.75
2023-05-25T16:05:21.925Z,2.70
2023-05-25T16:10:25.574Z,2.63
2023-05-25T16:15:30.097Z,2.97
2023-05-25T16:20:33.516Z,2.85
2023-05-25T16:25:37.102Z,3.17
2023-05-25T16:30:41.047Z,2.45
2023-05-25T16:35:45.007Z,2.78
2023-05-25T16:40:48.842Z,2.72
2023-05-25T16:45:52.399Z,3.22
2023-05-25T16:50:56.614Z,2.80
2023-05-25T16:55:59.846Z,3.08
2023-05-25T17:01:03.821Z,2.95
2023-05-25T17:06:08.113Z,3.00
2023-05-25T17:11:11.955Z,3.33
2023-05-25T17:16:15.412Z,2.85
2023-05-25T17:21:18.673Z,3.60
2023-05-25T17:26:24.412Z,3.05
2023-05-25T17:31:30.736Z,2.80
2023-05-25T17:41:39.121Z,3.50
2023-05-25T17:46:43.421Z,3.60
2023-05-25T17:51:47.446Z,3.40
2023-05-25T17:56:51.012Z,3.25
2023-05-25T18:01:55.248Z,2.53
2023-05-25T18:06:58.798Z,2.47
2023-05-25T18:12:03.996Z,2.38
2023-05-25T18:17:07.834Z,2.40
2023-05-25T18:22:11.539Z,2.88
2023-05-25T18:27:15.320Z,2.45
2023-05-25T18:32:18.522Z,2.35
2023-05-25T18:37:23.460Z,2.47
2023-05-25T18:42:26.667Z,3.00
2023-05-25T18:47:30.794Z,3.08
2023-05-25T18:52:34.495Z,2.60
2023-05-25T18:57:38.846Z,2.50
2023-05-25T19:02:43.304Z,2.88
2023-05-25T19:12:53.505Z,3.00
2023-05-25T19:17:57.958Z,2.78
2023-05-25T19:23:01.969Z,2.50
2023-05-25T19:28:06.302Z,2.75
2023-05-25T19:33:10.331Z,2.88
2023-05-25T19:38:14.444Z,2.67
2023-05-25T19:43:18.075Z,2.72
2023-05-25T19:48:24.584Z,2.42
2023-05-25T19:53:29.091Z,2.60
2023-05-25T19:58:32.913Z,2.90
2023-05-25T20:03:36.876Z,3.25
2023-05-25T20:08:41.179Z,2.80
2023-05-25T20:13:46.656Z,2.85
2023-05-25T20:18:50.185Z,2.88
2023-05-25T20:23:53.999Z,2.90
2023-05-25T20:28:58.345Z,2.65
2023-05-25T20:34:01.517Z,2.92
2023-05-25T20:39:04.626Z,3.00
2023-05-25T20:44:09.243Z,2.72
2023-05-25T20:49:13.180Z,2.53
2023-05-25T20:54:19.636Z,2.88
2023-05-25T20:59:23.792Z,2.90
2023-05-25T21:04:28.852Z,2.85
2023-05-25T21:09:34.523Z,2.60
2023-05-25T21:14:37.972Z,2.78
2023-05-25T21:19:42.034Z,2.58
2023-05-25T21:24:45.295Z,2.42
2023-05-25T21:29:49.024Z,2.65
2023-05-25T21:34:53.458Z,2.13
2023-05-25T21:39:57.198Z,2.55
2023-05-25T21:45:00.816Z,2.80
2023-05-25T21:50:04.229Z,2.45
2023-05-25T21:55:08.755Z,2.08
2023-05-25T22:00:14.769Z,1.90
2023-05-25T22:05:19.411Z,1.90
2023-05-25T22:10:23.459Z,1.85
2023-05-25T22:15:27.268Z,1.90
2023-05-25T22:20:31.256Z,1.77
2023-05-25T22:25:34.813Z,2.10
2023-05-25T22:30:38.978Z,2.05
2023-05-25T22:35:42.539Z,2.10
2023-05-25T22:40:48.023Z,1.90
2023-05-25T22:45:54.553Z,2.08
2023-05-25T22:50:58.400Z,2.13
2023-05-25T22:56:02.089Z,1.98
2023-05-25T23:01:05.802Z,2.60
2023-05-25T23:06:09.038Z,2.70
2023-05-25T23:11:13.151Z,2.42
2023-05-25T23:16:19.101Z,2.33
2023-05-25T23:21:23.137Z,2.30
2023-05-25T23:26:27.249Z,2.30
2023-05-25T23:31:31.052Z,1.63
2023-05-25T23:36:34.769Z,2.33
2023-05-25T23:41:39.030Z,2.20
2023-05-25T23:46:42.471Z,1.95
2023-05-25T23:51:46.121Z,1.92
2023-05-25T23:56:49.609Z,2.05
